Time,TemperatureF,DewpointF,PressureIn,WindDirection,WindDirectionDegrees,WindSpeedMPH,WindSpeedGustMPH,Humidity,HourlyPrecipIn,Conditions,Clouds,dailyrainin,SolarRadiationWatts/m^2,SoftwareType,DateUTC
2013-02-05 00:00:00,9.0,7.0,-100.00,ESE,112,0.0,-999.0,91,-99.99,,,-99.99,0.000000,,2013-02-05 05:00:00,
2013-02-05 00:42:00,9.0,7.0,-100.00,ESE,112,0.0,-999.0,91,-99.99,,,-99.99,0.000000,,2013-02-05 05:42:00,
2013-02-05 00:52:00,9.0,7.0,-100.00,ESE,112,0.0,-999.0,91,-99.99,,,-99.99,0.000000,,2013-02-05 05:52:00,
2013-02-05 01:00:00,8.0,6.0,-100.00,ESE,112,0.0,-999.0,90,-99.99,,,-99.99,0.000000,,2013-02-05 06:00:00,
2013-02-05 01:42:00,8.0,6.0,-100.00,ESE,112,0.0,-999.0,90,-99.99,,,-99.99,0.000000,,2013-02-05 06:42:00,
2013-02-05 01:52:00,8.0,6.0,-100.00,ESE,112,0.0,-999.0,90,-99.99,,,-99.99,0.000000,,2013-02-05 06:52:00,
2013-02-05 02:00:00,6.0,4.0,-100.00,ESE,112,0.0,-999.0,89,-99.99,,,-99.99,0.000000,,2013-02-05 07:00:00,
2013-02-05 02:42:00,6.0,4.0,-100.00,ESE,112,0.0,-999.0,89,-99.99,,,-99.99,0.000000,,2013-02-05 07:42:00,
2013-02-05 02:52:00,6.0,4.0,-100.00,ESE,112,0.0,-999.0,89,-99.99,,,-99.99,0.000000,,2013-02-05 07:52:00,
2013-02-05 03:00:00,5.0,3.0,-100.00,ESE,112,0.0,-999.0,89,-99.99,,,-99.99,0.000000,,2013-02-05 08:00:00,
2013-02-05 03:42:00,5.0,3.0,-100.00,ESE,112,0.0,-999.0,89,-99.99,,,-99.99,0.000000,,2013-02-05 08:42:00,
2013-02-05 03:52:00,5.0,3.0,-100.00,ESE,112,0.0,-999.0,89,-99.99,,,-99.99,0.000000,,2013-02-05 08:52:00,
2013-02-05 04:00:00,4.0,2.0,-100.00,ESE,112,0.0,-999.0,89,-99.99,,,-99.99,0.000000,,2013-02-05 09:00:00,
2013-02-05 04:42:00,4.0,2.0,-100.00,ESE,112,0.0,-999.0,89,-99.99,,,-99.99,0.000000,,2013-02-05 09:42:00,
2013-02-05 04:52:00,4.0,2.0,-100.00,ESE,112,0.0,-999.0,89,-99.99,,,-99.99,0.000000,,2013-02-05 09:52:00,
2013-02-05 05:00:00,3.0,0.0,-100.00,ESE,112,0.0,-999.0,88,-99.99,,,-99.99,0.000000,,2013-02-05 10:00:00,
2013-02-05 05:42:00,3.0,0.0,-100.00,ESE,112,0.0,-999.0,88,-99.99,,,-99.99,0.000000,,2013-02-05 10:42:00,
2013-02-05 05:52:00,3.0,0.0,-100.00,ESE,112,0.0,-999.0,88,-99.99,,,-99.99,0.000000,,2013-02-05 10:52:00,
2013-02-05 06:00:00,2.0,0.0,-100.00,ESE,112,0.0,-999.0,88,-99.99,,,-99.99,0.000000,,2013-02-05 11:00:00,
2013-02-05 06:42:00,2.0,0.0,-100.00,ESE,112,0.0,-999.0,88,-99.99,,,-99.99,0.000000,,2013-02-05 11:42:00,
2013-02-05 06:52:00,2.0,0.0,-100.00,ESE,112,0.0,-999.0,88,-99.99,,,-99.99,0.000000,,2013-02-05 11:52:00,
2013-02-05 07:00:00,2.0,0.0,-100.00,ESE,112,0.0,-999.0,88,-99.99,,,-99.99,0.000000,,2013-02-05 12:00:00,
2013-02-05 07:32:00,2.0,0.0,-100.00,ESE,112,0.0,-999.0,88,-99.99,,,-99.99,0.000000,,2013-02-05 12:32:00,
2013-02-05 07:42:00,2.0,0.0,-100.00,ESE,112,0.0,-999.0,88,-99.99,,,-99.99,0.000000,,2013-02-05 12:42:00,
2013-02-05 07:52:00,2.0,0.0,-100.00,ESE,112,0.0,-999.0,88,-99.99,,,-99.99,0.000000,,2013-02-05 12:52:00,
2013-02-05 08:00:00,5.0,3.0,-100.00,ESE,112,0.0,-999.0,89,-99.99,,,-99.99,2.320000,,2013-02-05 13:00:00,
2013-02-05 08:32:00,5.0,3.0,-100.00,ESE,112,0.0,-999.0,89,-99.99,,,-99.99,2.320000,,2013-02-05 13:32:00,
2013-02-05 08:42:00,5.0,3.0,-100.00,ESE,112,0.0,-999.0,89,-99.99,,,-99.99,2.320000,,2013-02-05 13:42:00,
2013-02-05 08:52:00,5.0,3.0,-100.00,ESE,112,0.0,-999.0,89,-99.99,,,-99.99,2.320000,,2013-02-05 13:52:00,
2013-02-05 09:00:00,9.0,7.0,-100.00,ESE,112,0.0,-999.0,89,-99.99,,,-99.99,32.480000,,2013-02-05 14:00:00,
2013-02-05 09:42:00,9.0,7.0,-100.00,ESE,112,0.0,-999.0,89,-99.99,,,-99.99,32.480000,,2013-02-05 14:42:00,
2013-02-05 09:52:00,9.0,7.0,-100.00,ESE,112,0.0,-999.0,89,-99.99,,,-99.99,32.480000,,2013-02-05 14:52:00,
2013-02-05 10:00:00,13.0,10.0,-100.00,ESE,112,1.0,-999.0,88,-99.99,,,-99.99,80.040001,,2013-02-05 15:00:00,
2013-02-05 10:42:00,13.0,10.0,-100.00,ESE,112,1.0,-999.0,88,-99.99,,,-99.99,80.040001,,2013-02-05 15:42:00,
2013-02-05 10:52:00,13.0,10.0,-100.00,ESE,112,1.0,-999.0,88,-99.99,,,-99.99,80.040001,,2013-02-05 15:52:00,
2013-02-05 11:00:00,16.0,12.0,-100.00,ESE,112,1.0,-999.0,82,-99.99,,,-99.99,205.320007,,2013-02-05 16:00:00,
2013-02-05 11:42:00,16.0,12.0,-100.00,ESE,112,1.0,-999.0,82,-99.99,,,-99.99,205.320007,,2013-02-05 16:42:00,
2013-02-05 11:52:00,16.0,12.0,-100.00,ESE,112,1.0,-999.0,82,-99.99,,,-99.99,205.320007,,2013-02-05 16:52:00,
2013-02-05 12:00:00,20.0,14.0,-100.00,ESE,112,2.0,-999.0,78,-99.99,,,-99.99,206.479996,,2013-02-05 17:00:00,
2013-02-05 12:42:00,20.0,14.0,-100.00,ESE,112,2.0,-999.0,78,-99.99,,,-99.99,206.479996,,2013-02-05 17:42:00,
2013-02-05 12:52:00,20.0,14.0,-100.00,ESE,112,2.0,-999.0,78,-99.99,,,-99.99,206.479996,,2013-02-05 17:52:00,
2013-02-05 13:00:00,22.0,16.0,-100.00,SE,135,2.0,-999.0,76,-99.99,,,-99.99,276.079987,,2013-02-05 18:00:00,
2013-02-05 13:42:00,22.0,16.0,-100.00,SE,135,2.0,-999.0,76,-99.99,,,-99.99,276.079987,,2013-02-05 18:42:00,
2013-02-05 13:52:00,22.0,16.0,-100.00,SE,135,2.0,-999.0,76,-99.99,,,-99.99,276.079987,,2013-02-05 18:52:00,
2013-02-05 14:00:00,24.0,18.0,-100.00,SSW,202,3.0,-999.0,75,-99.99,,,-99.99,244.759995,,2013-02-05 19:00:00,
2013-02-05 14:42:00,24.0,18.0,-100.00,SSW,202,3.0,-999.0,75,-99.99,,,-99.99,244.759995,,2013-02-05 19:42:00,
2013-02-05 14:52:00,24.0,18.0,-100.00,SSW,202,3.0,-999.0,75,-99.99,,,-99.99,244.759995,,2013-02-05 19:52:00,
2013-02-05 15:00:00,25.0,20.0,-100.00,SW,225,3.0,-999.0,79,-99.99,,,-99.99,190.240005,,2013-02-05 20:00:00,
2013-02-05 15:42:00,25.0,20.0,-100.00,SW,225,3.0,-999.0,79,-99.99,,,-99.99,190.240005,,2013-02-05 20:42:00,
2013-02-05 15:52:00,25.0,20.0,-100.00,SW,225,3.0,-999.0,79,-99.99,,,-99.99,190.240005,,2013-02-05 20:52:00,
2013-02-05 16:00:00,25.0,22.0,-100.00,SW,225,3.0,-999.0,85,-99.99,,,-99.99,160.080002,,2013-02-05 21:00:00,
2013-02-05 16:42:00,25.0,22.0,-100.00,SW,225,3.0,-999.0,85,-99.99,,,-99.99,160.080002,,2013-02-05 21:42:00,
2013-02-05 16:52:00,25.0,22.0,-100.00,SW,225,3.0,-999.0,85,-99.99,,,-99.99,160.080002,,2013-02-05 21:52:00,
2013-02-05 17:00:00,25.0,22.0,-100.00,SW,225,2.0,-999.0,87,-99.99,,,-99.99,51.040001,,2013-02-05 22:00:00,
2013-02-05 17:42:00,25.0,22.0,-100.00,SW,225,2.0,-999.0,87,-99.99,,,-99.99,51.040001,,2013-02-05 22:42:00,
2013-02-05 17:52:00,25.0,22.0,-100.00,SW,225,2.0,-999.0,87,-99.99,,,-99.99,51.040001,,2013-02-05 22:52:00,
2013-02-05 18:00:00,26.0,23.0,-100.00,SW,225,1.0,-999.0,88,-99.99,,,-99.99,6.960000,,2013-02-05 23:00:00,
2013-02-05 18:42:00,26.0,23.0,-100.00,SW,225,1.0,-999.0,88,-99.99,,,-99.99,6.960000,,2013-02-05 23:42:00,
2013-02-05 18:53:00,26.0,23.0,-100.00,SW,225,1.0,-999.0,88,-99.99,,,-99.99,6.960000,,2013-02-05 23:53:00,
2013-02-05 19:00:00,26.0,23.0,-100.00,SW,225,1.0,-999.0,90,-99.99,,,-99.99,0.000000,,2013-02-06 00:00:00,
2013-02-05 19:42:00,26.0,23.0,-100.00,SW,225,1.0,-999.0,90,-99.99,,,-99.99,0.000000,,2013-02-06 00:42:00,
2013-02-05 19:52:00,26.0,23.0,-100.00,SW,225,1.0,-999.0,90,-99.99,,,-99.99,0.000000,,2013-02-06 00:52:00,
2013-02-05 20:00:00,25.0,23.0,-100.00,SW,225,2.0,-999.0,91,-99.99,,,-99.99,0.000000,,2013-02-06 01:00:00,
2013-02-05 20:42:00,25.0,23.0,-100.00,SW,225,2.0,-999.0,91,-99.99,,,-99.99,0.000000,,2013-02-06 01:42:00,
2013-02-05 20:53:00,25.0,23.0,-100.00,SW,225,2.0,-999.0,91,-99.99,,,-99.99,0.000000,,2013-02-06 01:53:00,
2013-02-05 21:00:00,24.0,22.0,-100.00,SW,225,4.0,-999.0,89,-99.99,,,-99.99,0.000000,,2013-02-06 02:00:00,
2013-02-05 21:42:00,24.0,22.0,-100.00,SW,225,4.0,-999.0,89,-99.99,,,-99.99,0.000000,,2013-02-06 02:42:00,
2013-02-05 21:53:00,24.0,22.0,-100.00,SW,225,4.0,-999.0,89,-99.99,,,-99.99,0.000000,,2013-02-06 02:53:00,
2013-02-05 22:00:00,24.0,21.0,-100.00,SW,225,2.0,-999.0,90,-99.99,,,-99.99,0.000000,,2013-02-06 03:00:00,
2013-02-05 22:43:00,24.0,21.0,-100.00,SW,225,2.0,-999.0,90,-99.99,,,-99.99,0.000000,,2013-02-06 03:43:00,
2013-02-05 22:53:00,24.0,21.0,-100.00,SW,225,2.0,-999.0,90,-99.99,,,-99.99,0.000000,,2013-02-06 03:53:00,
2013-02-05 23:00:00,23.0,19.0,-100.00,SW,225,3.0,-999.0,86,-99.99,,,-99.99,0.000000,,2013-02-06 04:00:00,
2013-02-05 23:42:00,23.0,19.0,-100.00,SW,225,3.0,-999.0,86,-99.99,,,-99.99,0.000000,,2013-02-06 04:42:00,
2013-02-05 23:52:00,23.0,19.0,-100.00,SW,225,3.0,-999.0,86,-99.99,,,-99.99,0.000000,,2013-02-06 04:52:00,